Time;durP1;ratioP1;P1;durP2;ratioP2;P2;SDS_P1;SDS_P2;PMS_P1;PMS_P2;Temp;Humidity;BMP_temperature;BMP_pressure;BME280_temperature;BME280_humidity;BME280_pressure;Samples;Min_cycle;Max_cycle;Signal;HPM_P1;HPM_P2
2022/04/25 00:00:59;;;;;;;2.37;1.70;;;;;;;10.12;62.31;98993.30;1745873;81;21021;-51
2022/04/25 00:03:26;;;;;;;2.65;1.80;;;;;;;10.13;62.26;98990.97;1746985;81;21565;-51
2022/04/25 00:05:55;;;;;;;2.33;1.87;;;;;;;10.14;62.20;98990.02;1749044;81;21030;-51
2022/04/25 00:08:21;;;;;;;1.32;1.22;;;;;;;10.16;62.21;98990.81;1746810;81;21120;-51
2022/04/25 00:10:49;;;;;;;1.75;1.52;;;;;;;10.17;62.36;98992.55;1746980;81;21065;-51
2022/04/25 00:13:17;;;;;;;1.72;1.50;;;;;;;10.16;62.41;98989.46;1747321;81;21030;-51
2022/04/25 00:15:44;;;;;;;1.80;1.30;;;;;;;10.14;62.33;98994.92;1748547;81;21149;-51
2022/04/25 00:18:13;;;;;;;2.45;1.75;;;;;;;10.16;62.43;98989.46;1748665;81;21111;-50
2022/04/25 00:20:41;;;;;;;2.08;1.72;;;;;;;10.16;62.44;98996.19;1748199;81;22088;-50
2022/04/25 00:23:07;;;;;;;1.67;1.57;;;;;;;10.14;62.51;98992.23;1747843;81;21057;-49
2022/04/25 00:25:36;;;;;;;1.95;1.85;;;;;;;10.15;62.53;98993.10;1747498;81;21066;-50
2022/04/25 00:28:05;;;;;;;1.45;1.35;;;;;;;10.14;62.58;99000.78;1747029;81;21571;-49
2022/04/25 00:30:32;;;;;;;2.00;1.30;;;;;;;10.12;62.64;98998.17;1749084;81;21130;-49
2022/04/25 00:33:00;;;;;;;1.42;1.12;;;;;;;10.09;62.68;98992.99;1748573;81;21054;-49
2022/04/25 00:35:27;;;;;;;2.47;1.72;;;;;;;10.08;62.75;99002.48;1741583;81;21069;-51
2022/04/25 00:37:55;;;;;;;1.70;1.60;;;;;;;10.08;62.77;98997.11;1743561;81;21042;-48
2022/04/25 00:40:24;;;;;;;1.80;1.63;;;;;;;10.07;62.78;98998.06;1739680;81;21033;-50
2022/04/25 00:42:50;;;;;;;2.25;1.98;;;;;;;10.05;62.84;98991.91;1740760;81;21345;-49
2022/04/25 00:45:17;;;;;;;2.05;1.95;;;;;;;10.05;62.87;98986.52;1741533;81;21577;-48
2022/04/25 00:47:45;;;;;;;2.00;1.90;;;;;;;10.04;62.88;98972.69;1742496;81;20982;-49
2022/04/25 00:50:13;;;;;;;2.47;2.27;;;;;;;10.03;62.94;98970.50;1737790;81;21513;-49
2022/04/25 00:52:40;;;;;;;1.97;1.87;;;;;;;10.04;62.93;98968.66;1737644;81;21105;-50
2022/04/25 00:55:10;;;;;;;2.75;1.60;;;;;;;10.04;62.99;98970.00;1737798;81;21081;-48
2022/04/25 00:57:38;;;;;;;1.73;1.63;;;;;;;10.04;63.01;98963.28;1731886;81;20913;-50
2022/04/25 01:00:10;;;;;;;1.90;1.80;;;;;;;10.05;62.93;98963.67;1739209;81;21037;-51
2022/04/25 01:02:38;;;;;;;1.73;1.63;;;;;;;10.05;63.01;98961.84;1740499;81;21058;-49
2022/04/25 01:05:07;;;;;;;2.20;2.00;;;;;;;10.03;63.10;98963.78;1739644;81;21112;-50
2022/04/25 01:07:36;;;;;;;1.82;1.72;;;;;;;10.03;63.13;98962.92;1740675;81;21005;-50
2022/04/25 01:10:08;;;;;;;2.02;1.82;;;;;;;10.03;63.19;98950.82;1737401;81;21071;-51
2022/04/25 01:12:36;;;;;;;1.65;1.55;;;;;;;10.01;63.13;98950.90;1741001;81;20911;-50
2022/04/25 01:15:08;;;;;;;2.17;2.07;;;;;;;10.02;63.16;98951.77;1736616;81;21183;-50
2022/04/25 01:17:36;;;;;;;1.60;1.50;;;;;;;10.02;63.17;98955.80;1738660;81;21500;-49
2022/04/25 01:20:05;;;;;;;2.08;1.87;;;;;;;10.00;63.23;98943.79;1739499;81;21105;-50
2022/04/25 01:22:50;;;;;;;1.85;1.75;;;;;;;10.00;63.14;98939.76;1743275;81;20933;-50
2022/04/25 01:28:03;;;;;;;2.05;1.80;;;;;;;10.00;62.98;98933.03;1743883;81;20881;-50
2022/04/25 01:30:31;;;;;;;1.85;1.75;;;;;;;10.02;62.87;98931.61;1743627;81;20908;-50
2022/04/25 01:32:59;;;;;;;1.30;1.20;;;;;;;10.02;62.84;98931.61;1741051;81;20968;-51
2022/04/25 01:35:25;;;;;;;1.60;1.50;;;;;;;10.02;62.82;98928.44;1740480;81;21169;-51
2022/04/25 01:37:52;;;;;;;1.45;1.35;;;;;;;10.02;62.83;98923.06;1713297;81;20907;-51
2022/04/25 01:40:20;;;;;;;1.37;1.27;;;;;;;10.03;62.79;98926.14;1744246;81;20905;-50
2022/04/25 01:42:48;;;;;;;1.25;1.15;;;;;;;10.03;62.84;98918.08;1742595;81;20929;-49
2022/04/25 01:45:16;;;;;;;1.55;1.45;;;;;;;10.04;62.79;98923.81;1742530;81;21420;-50
2022/04/25 01:47:44;;;;;;;1.30;1.20;;;;;;;10.04;62.85;98919.78;1740900;81;21545;-51
2022/04/25 01:50:11;;;;;;;1.40;1.30;;;;;;;10.05;62.84;98920.17;1740111;81;20968;-49
2022/04/25 01:52:39;;;;;;;1.20;1.10;;;;;;;10.07;62.85;98918.74;1742724;81;20955;-50
2022/04/25 01:55:08;;;;;;;1.17;1.07;;;;;;;10.08;62.87;98920.00;1741246;81;20966;-49
2022/04/25 01:57:34;;;;;;;1.50;1.40;;;;;;;10.10;62.86;98919.92;1743152;81;20916;-48
2022/04/25 02:00:04;;;;;;;3.05;1.40;;;;;;;10.10;62.75;98918.09;1739448;81;21106;-50
2022/04/25 02:02:31;;;;;;;1.40;1.30;;;;;;;10.13;62.64;98922.41;1745014;81;21601;-51
2022/04/25 02:04:59;;;;;;;1.32;1.15;;;;;;;10.15;62.55;98918.67;1740248;81;20978;-49
2022/04/25 02:07:27;;;;;;;1.50;0.93;;;;;;;10.17;62.49;98921.28;1741196;81;21017;-50
2022/04/25 02:09:54;;;;;;;1.40;1.30;;;;;;;10.18;62.46;98924.39;1740730;81;21101;-50
2022/04/25 02:12:22;;;;;;;1.37;1.17;;;;;;;10.17;62.38;98930.25;1744003;81;21995;-50
2022/04/25 02:14:49;;;;;;;1.30;1.20;;;;;;;10.18;62.41;98935.15;1745324;81;21531;-50
2022/04/25 02:17:16;;;;;;;1.47;1.20;;;;;;;10.17;62.37;98928.91;1738010;81;21119;-50
2022/04/25 02:19:44;;;;;;;1.47;1.15;;;;;;;10.15;62.38;98925.87;1739181;81;21525;-50
2022/04/25 02:22:11;;;;;;;2.65;1.17;;;;;;;10.14;62.35;98925.00;1740755;81;21128;-50
2022/04/25 02:24:39;;;;;;;1.77;1.67;;;;;;;10.14;62.38;98922.80;1739149;81;21442;-50
2022/04/25 02:27:08;;;;;;;1.70;1.60;;;;;;;10.12;62.36;98918.84;1742261;81;21081;-50
2022/04/25 02:29:41;;;;;;;1.87;1.20;;;;;;;10.11;62.38;98913.59;1739897;81;21401;-51
2022/04/25 02:32:12;;;;;;;1.72;1.40;;;;;;;10.11;62.36;98918.48;1740470;81;21053;-50
2022/04/25 02:34:38;;;;;;;1.37;1.20;;;;;;;10.10;62.32;98906.00;1740124;81;21049;-50
2022/04/25 02:37:05;;;;;;;1.47;1.25;;;;;;;10.10;62.28;98906.00;1728852;81;22264;-49
2022/04/25 02:39:31;;;;;;;1.30;1.15;;;;;;;10.08;62.26;98899.84;1731143;81;21474;-49
2022/04/25 02:41:58;;;;;;;1.40;1.30;;;;;;;10.08;62.25;98904.34;1730699;82;21475;-50
2022/04/25 02:44:25;;;;;;;1.20;1.10;;;;;;;10.08;62.24;98907.03;1727360;82;21219;-49
2022/04/25 02:46:52;;;;;;;1.27;1.17;;;;;;;10.06;62.26;98904.44;1729874;82;21698;-49
2022/04/25 02:49:20;;;;;;;1.30;1.10;;;;;;;10.06;62.27;98910.28;1731870;82;21605;-51
2022/04/25 02:51:47;;;;;;;1.40;1.30;;;;;;;10.05;62.37;98908.55;1731220;82;21029;-50
2022/04/25 02:54:13;;;;;;;1.10;1.00;;;;;;;10.04;62.44;98917.09;1731345;82;21079;-50
2022/04/25 02:56:41;;;;;;;1.10;1.00;;;;;;;10.04;62.42;98917.56;1730040;82;21041;-51
2022/04/25 02:59:07;;;;;;;1.40;1.10;;;;;;;10.02;62.52;98918.16;1728486;82;21054;-50
2022/04/25 03:01:35;;;;;;;1.45;1.27;;;;;;;10.00;62.50;98915.56;1731865;82;20974;-50
2022/04/25 03:04:04;;;;;;;2.47;1.37;;;;;;;9.98;62.50;98912.56;1731765;81;21084;-50
2022/04/25 03:06:32;;;;;;;1.60;1.40;;;;;;;9.97;62.58;98908.14;1731932;82;21026;-51
2022/04/25 03:08:58;;;;;;;1.22;1.12;;;;;;;9.94;62.67;98902.97;1732441;82;21398;-50
2022/04/25 03:11:26;;;;;;;1.40;1.30;;;;;;;9.94;62.71;98892.21;1729619;82;21075;-51
2022/04/25 03:13:55;;;;;;;1.30;1.20;;;;;;;9.93;62.75;98891.82;1729874;82;21579;-50
2022/04/25 03:16:22;;;;;;;1.37;1.27;;;;;;;9.93;62.77;98883.75;1729687;82;21560;-50
2022/04/25 03:18:48;;;;;;;1.42;1.32;;;;;;;9.94;62.77;98879.64;1729148;82;21053;-50
2022/04/25 03:21:16;;;;;;;1.10;1.00;;;;;;;9.97;62.81;98874.53;1729720;81;21022;-50
2022/04/25 03:23:44;;;;;;;1.77;1.12;;;;;;;10.00;62.78;98879.27;1728587;82;21060;-51
2022/04/25 03:26:10;;;;;;;2.75;1.45;;;;;;;10.04;62.78;98875.89;1728606;82;21568;-49
2022/04/25 03:28:37;;;;;;;1.25;1.15;;;;;;;10.07;62.72;98875.72;1729985;82;21120;-48
2022/04/25 03:31:06;;;;;;;1.20;1.10;;;;;;;10.11;62.64;98870.56;1729814;82;21623;-50
2022/04/25 03:33:36;;;;;;;1.40;1.27;;;;;;;10.15;62.45;98853.27;1732070;82;20866;-50
2022/04/25 03:36:04;;;;;;;1.10;1.00;;;;;;;10.19;62.29;98853.04;1720337;82;21577;-50
2022/04/25 03:38:31;;;;;;;1.17;1.07;;;;;;;10.24;62.08;98854.09;1714873;83;21647;-50
2022/04/25 03:40:59;;;;;;;2.65;1.47;;;;;;;10.28;61.87;98846.23;1713530;82;21299;-49
2022/04/25 03:43:25;;;;;;;1.60;1.20;;;;;;;10.33;61.86;98847.28;1715367;83;20867;-50
2022/04/25 03:45:52;;;;;;;1.22;1.12;;;;;;;10.38;61.76;98847.88;1716844;83;21471;-51
2022/04/25 03:48:20;;;;;;;2.92;1.10;;;;;;;10.41;61.62;98847.67;1715032;82;20939;-50
2022/04/25 03:50:46;;;;;;;1.30;1.20;;;;;;;10.45;61.60;98850.09;1716459;83;21478;-49
2022/04/25 03:53:13;;;;;;;1.92;1.20;;;;;;;10.50;61.59;98856.52;1715640;83;21510;-49
2022/04/25 03:58:27;;;;;;;2.35;1.10;;;;;;;10.64;61.49;98863.25;1714053;83;21082;-49
2022/04/25 04:00:55;;;;;;;2.22;1.10;;;;;;;10.73;61.39;98854.59;1715501;83;21389;-48
2022/04/25 04:03:23;;;;;;;1.20;1.00;;;;;;;10.80;61.31;98841.13;1716610;83;21498;-50
2022/04/25 04:05:50;;;;;;;1.32;0.90;;;;;;;10.88;61.19;98848.74;1715159;83;21488;-51
2022/04/25 04:08:18;;;;;;;1.30;1.20;;;;;;;10.98;61.15;98849.86;1714773;83;21046;-49
2022/04/25 04:10:46;;;;;;;1.10;1.00;;;;;;;11.10;61.20;98846.88;1713893;83;21331;-50
2022/04/25 04:13:13;;;;;;;1.57;1.10;;;;;;;11.22;61.00;98840.70;1713327;83;21099;-49
2022/04/25 04:15:41;;;;;;;1.32;0.98;;;;;;;11.31;60.66;98830.16;1714002;83;21881;-50
2022/04/25 04:18:09;;;;;;;1.15;1.05;;;;;;;11.41;60.46;98827.73;1714365;82;21077;-50
2022/04/25 04:20:35;;;;;;;3.27;1.00;;;;;;;11.50;60.20;98832.99;1713811;83;21078;-51
2022/04/25 04:23:02;;;;;;;3.25;1.00;;;;;;;11.59;60.19;98826.99;1714865;82;21402;-50
2022/04/25 04:25:32;;;;;;;1.98;1.77;;;;;;;11.66;59.88;98821.56;1715652;83;21053;-51
2022/04/25 04:28:00;;;;;;;2.25;0.90;;;;;;;11.72;59.72;98822.52;1715000;83;20862;-50
2022/04/25 04:30:26;;;;;;;1.42;1.00;;;;;;;11.79;59.66;98828.39;1717400;83;20970;-50
2022/04/25 04:32:52;;;;;;;1.75;1.10;;;;;;;11.84;59.59;98824.88;1714809;83;21385;-50
2022/04/25 04:38:05;;;;;;;1.30;1.10;;;;;;;11.93;59.52;98823.78;1730763;82;21551;-50
2022/04/25 04:40:32;;;;;;;1.27;0.90;;;;;;;11.99;59.36;98818.47;1729959;82;21085;-50
2022/04/25 04:42:59;;;;;;;3.45;1.05;;;;;;;12.02;59.34;98813.71;1730674;82;21320;-50
2022/04/25 04:45:26;;;;;;;1.05;0.95;;;;;;;12.06;59.38;98819.77;1727962;82;21457;-49
2022/04/25 04:47:53;;;;;;;1.20;1.00;;;;;;;12.09;59.43;98824.94;1728844;82;21120;-49
2022/04/25 04:50:20;;;;;;;2.55;1.00;;;;;;;12.13;59.40;98832.73;1729773;82;20902;-50
2022/04/25 04:52:52;;;;;;;1.15;0.90;;;;;;;12.19;59.45;98829.21;1730787;82;21231;-50
2022/04/25 04:55:19;;;;;;;1.15;1.02;;;;;;;12.24;59.32;98818.50;1732411;81;20911;-50
2022/04/25 04:57:47;;;;;;;1.12;1.00;;;;;;;12.32;59.20;98817.96;1731161;81;20894;-49
2022/04/25 05:00:16;;;;;;;1.17;0.88;;;;;;;12.41;59.35;98818.67;1731849;82;21096;-51
2022/04/25 05:02:43;;;;;;;5.85;0.90;;;;;;;12.47;59.24;98815.05;1732843;81;20917;-50
2022/04/25 05:05:12;;;;;;;0.93;0.82;;;;;;;12.53;59.32;98815.56;1731243;82;21645;-51
2022/04/25 05:07:38;;;;;;;1.47;0.90;;;;;;;12.58;59.53;98816.98;1729020;82;21084;-50
2022/04/25 05:10:08;;;;;;;1.30;0.82;;;;;;;12.64;59.71;98815.19;1729539;82;21389;-52
2022/04/25 05:12:50;;;;;;;0.80;0.80;;;;;;;12.71;59.68;98825.92;1732436;82;21104;-51
2022/04/25 05:15:17;;;;;;;1.22;0.93;;;;;;;12.77;59.71;98824.61;1730303;82;21016;-51
2022/04/25 05:17:48;;;;;;;1.10;0.95;;;;;;;12.84;59.77;98815.95;1728113;81;21933;-51
2022/04/25 05:20:15;;;;;;;1.27;1.10;;;;;;;12.90;59.69;98814.67;1728308;82;21721;-48
2022/04/25 05:22:44;;;;;;;3.60;0.90;;;;;;;12.97;59.65;98817.30;1730635;82;21081;-51
2022/04/25 05:25:14;;;;;;;1.10;0.95;;;;;;;13.02;59.62;98815.59;1731393;81;20930;-49
2022/04/25 05:27:42;;;;;;;1.77;1.10;;;;;;;13.09;59.60;98812.84;1730673;82;21720;-50
2022/04/25 05:30:12;;;;;;;1.52;1.32;;;;;;;13.16;59.46;98806.05;1731180;82;21065;-51
2022/04/25 05:32:54;;;;;;;1.45;1.20;;;;;;;13.23;59.30;98800.56;1730530;82;20875;-50
2022/04/25 05:35:26;;;;;;;1.32;1.00;;;;;;;13.32;59.42;98790.42;1730049;81;21461;-50
2022/04/25 05:37:54;;;;;;;1.50;1.25;;;;;;;13.43;59.27;98785.09;1731326;82;21459;-50
2022/04/25 05:40:21;;;;;;;1.10;1.00;;;;;;;13.53;59.24;98778.47;1729933;82;21020;-49
2022/04/25 05:42:48;;;;;;;1.35;0.90;;;;;;;13.62;59.32;98775.06;1729862;82;21562;-52
2022/04/25 05:45:18;;;;;;;2.52;1.40;;;;;;;13.74;59.61;98782.26;1731373;82;21223;-52
2022/04/25 05:47:44;;;;;;;1.20;1.10;;;;;;;13.86;59.84;98783.17;1730389;82;20965;-51
2022/04/25 05:52:59;;;;;;;1.82;1.40;;;;;;;14.12;59.78;98779.80;1731450;82;21117;-48
2022/04/25 05:55:28;;;;;;;1.65;0.88;;;;;;;14.25;59.77;98779.20;1728883;82;21496;-51
2022/04/25 05:57:56;;;;;;;1.35;1.20;;;;;;;14.37;59.97;98773.66;1732061;82;21073;-51
2022/04/25 06:00:24;;;;;;;3.62;1.35;;;;;;;14.50;59.98;98773.60;1732333;82;21251;-52
2022/04/25 06:02:52;;;;;;;4.42;1.00;;;;;;;14.63;60.01;98762.67;1736826;82;21026;-51
2022/04/25 06:05:19;;;;;;;1.80;1.10;;;;;;;14.76;59.95;98764.74;1734515;82;22271;-51
2022/04/25 06:07:47;;;;;;;2.30;1.10;;;;;;;14.89;59.89;98757.82;1730942;82;21020;-51
2022/04/25 06:10:15;;;;;;;3.47;1.22;;;;;;;15.00;59.94;98761.39;1730933;82;21519;-52
2022/04/25 06:12:48;;;;;;;2.50;1.30;;;;;;;15.12;59.97;98762.24;1729203;82;21072;-51
2022/04/25 06:15:18;;;;;;;2.08;1.15;;;;;;;15.24;59.66;98749.50;1731698;82;21053;-51
2022/04/25 06:17:44;;;;;;;4.00;1.20;;;;;;;15.46;59.50;98741.31;1730812;81;21065;-49
2022/04/25 06:20:11;;;;;;;2.05;1.40;;;;;;;15.46;59.50;98741.31;1730744;82;21045;-52
2022/04/25 06:22:39;;;;;;;3.15;1.20;;;;;;;15.70;59.51;98745.19;1729434;82;21053;-51
2022/04/25 06:25:07;;;;;;;6.97;1.00;;;;;;;15.70;59.51;98745.19;1730726;81;21061;-52
2022/04/25 06:27:34;;;;;;;1.55;1.12;;;;;;;15.80;59.28;98737.50;1730169;82;21083;-52
2022/04/25 06:30:04;;;;;;;1.07;0.98;;;;;;;15.91;59.27;98737.08;1728230;82;21124;-51
2022/04/25 06:32:32;;;;;;;1.77;1.65;;;;;;;16.02;59.18;98731.56;1728057;82;21079;-50
2022/04/25 06:35:00;;;;;;;1.98;1.50;;;;;;;16.13;58.99;98729.66;1731951;82;21081;-52
2022/04/25 06:37:27;;;;;;;1.42;1.32;;;;;;;16.23;58.69;98718.36;1735785;81;21326;-51
2022/04/25 06:39:55;;;;;;;4.55;1.22;;;;;;;16.34;58.43;98709.73;1716535;81;21113;-51
2022/04/25 06:42:21;;;;;;;2.42;1.07;;;;;;;16.44;58.31;98710.16;1716005;83;21080;-51
2022/04/25 06:44:48;;;;;;;2.05;1.57;;;;;;;16.53;58.08;98709.84;1713935;83;21568;-52
2022/04/25 06:47:16;;;;;;;1.65;1.02;;;;;;;16.61;57.97;98704.11;1711779;83;21133;-51
2022/04/25 06:49:42;;;;;;;2.15;1.47;;;;;;;16.69;57.99;98706.64;1716123;83;21682;-51
2022/04/25 06:52:10;;;;;;;1.62;1.20;;;;;;;16.77;57.81;98707.67;1714074;83;21097;-52
2022/04/25 06:54:37;;;;;;;1.98;1.27;;;;;;;16.84;57.63;98705.28;1714360;83;21053;-52
2022/04/25 06:57:06;;;;;;;2.17;1.30;;;;;;;16.92;57.56;98706.81;1713091;83;21830;-50
2022/04/25 06:59:32;;;;;;;1.92;1.30;;;;;;;17.00;57.56;98702.89;1715096;83;20951;-52
2022/04/25 07:02:00;;;;;;;1.20;1.10;;;;;;;17.09;57.45;98699.34;1716257;83;20958;-52
2022/04/25 07:04:27;;;;;;;3.45;1.22;;;;;;;17.18;57.00;98694.91;1716677;83;20871;-52
2022/04/25 07:06:54;;;;;;;1.98;1.42;;;;;;;17.26;56.76;98691.85;1716626;83;22144;-51
2022/04/25 07:09:23;;;;;;;2.62;1.22;;;;;;;17.35;56.36;98689.61;1713349;83;21109;-52
2022/04/25 07:11:51;;;;;;;3.20;1.40;;;;;;;17.42;56.13;98689.06;1714368;83;21515;-54
2022/04/25 07:14:18;;;;;;;1.57;1.25;;;;;;;17.48;56.17;98695.28;1715761;83;21031;-53
2022/04/25 07:16:54;;;;;;;3.42;1.20;;;;;;;17.51;55.81;98698.59;1715428;83;21556;-52
2022/04/25 07:19:22;;;;;;;1.45;1.20;;;;;;;17.54;55.57;98686.54;1713355;83;21042;-53
2022/04/25 07:30:08;;;;;;;3.00;1.10;;;;;;;17.61;55.67;98680.88;1714473;83;21084;-53
2022/04/25 07:32:40;;;;;;;2.90;1.00;;;;;;;17.63;55.69;98679.77;1716250;83;21038;-52
2022/04/25 07:35:07;;;;;;;1.17;0.90;;;;;;;17.66;55.56;98679.49;1716141;83;21144;-54
2022/04/25 07:37:35;;;;;;;1.20;0.90;;;;;;;17.65;55.36;98677.77;1714524;83;21495;-52
2022/04/25 07:40:03;;;;;;;3.65;0.90;;;;;;;17.66;55.23;98677.27;1734775;81;21040;-52
2022/04/25 07:42:31;;;;;;;1.92;0.82;;;;;;;17.66;55.73;98672.69;1742547;81;21413;-51
2022/04/25 07:44:59;;;;;;;2.62;1.30;;;;;;;17.69;55.70;98668.83;1742097;81;21363;-52
2022/04/25 07:47:26;;;;;;;2.50;1.00;;;;;;;17.74;55.80;98670.60;1742425;81;21634;-53
2022/04/25 07:49:52;;;;;;;1.35;1.00;;;;;;;17.78;55.45;98661.98;1741985;81;20948;-53
2022/04/25 07:52:19;;;;;;;2.05;1.00;;;;;;;17.84;55.23;98666.52;1736900;81;20866;-51
2022/04/25 07:54:46;;;;;;;2.90;0.90;;;;;;;17.87;55.36;98667.56;1738620;81;20907;-52
2022/04/25 07:57:13;;;;;;;2.37;0.80;;;;;;;17.94;55.34;98675.02;1736068;81;21030;-52
2022/04/25 07:59:40;;;;;;;5.58;0.80;;;;;;;18.02;55.57;98686.54;1738105;81;21112;-53
2022/04/25 08:02:09;;;;;;;2.30;0.90;;;;;;;18.11;55.49;98686.52;1742142;81;21432;-52
2022/04/25 08:04:37;;;;;;;2.35;1.15;;;;;;;18.23;55.41;98701.31;1743092;81;20882;-53
2022/04/25 08:07:04;;;;;;;1.40;0.90;;;;;;;18.32;54.80;98693.61;1741219;81;21564;-52
2022/04/25 08:09:33;;;;;;;2.15;1.02;;;;;;;18.37;54.49;98685.88;1740790;81;21564;-51
2022/04/25 08:20:18;;;;;;;3.00;0.82;;;;;;;18.54;53.93;98676.38;1713289;81;21033;-53
2022/04/25 08:22:45;;;;;;;2.00;0.78;;;;;;;18.56;54.01;98686.28;1739139;81;21031;-52
2022/04/25 08:25:15;;;;;;;2.30;0.80;;;;;;;18.59;54.12;98688.25;1741844;81;21042;-53
2022/04/25 08:27:43;;;;;;;2.20;0.82;;;;;;;18.65;54.32;98684.91;1737036;80;21318;-52
2022/04/25 08:30:16;;;;;;;2.15;1.37;;;;;;;18.71;53.96;98680.23;1738549;81;20912;-51
2022/04/25 08:32:39;;;;;;;3.47;1.00;;;;;;;18.77;54.00;98680.98;1742274;81;20907;-53
2022/04/25 08:35:09;;;;;;;1.40;1.00;;;;;;;18.82;54.15;98675.92;1737763;81;20931;-53
2022/04/25 08:37:35;;;;;;;1.47;1.00;;;;;;;18.88;54.19;98676.67;1738598;81;21413;-53
2022/04/25 08:40:04;;;;;;;2.52;1.35;;;;;;;18.97;54.03;98680.89;1725062;81;20971;-54
2022/04/25 08:42:31;;;;;;;3.02;1.00;;;;;;;19.04;53.70;98676.53;1716532;83;20886;-54
2022/04/25 08:44:59;;;;;;;3.17;1.00;;;;;;;19.07;53.12;98670.75;1714848;83;21082;-49
2022/04/25 08:47:28;;;;;;;0.98;0.80;;;;;;;19.09;53.00;98675.05;1713960;83;21062;-50
2022/04/25 08:49:58;;;;;;;2.65;1.05;;;;;;;19.13;53.27;98679.70;1714350;83;21078;-51
2022/04/25 08:52:28;;;;;;;3.05;1.00;;;;;;;19.20;53.51;98679.44;1693093;83;21128;-50
2022/04/25 08:54:56;;;;;;;2.25;1.20;;;;;;;19.21;53.24;98686.11;1714710;83;21037;-49
2022/04/25 08:57:28;;;;;;;2.30;0.93;;;;;;;19.22;53.32;98676.06;1716430;83;21102;-50
2022/04/25 08:59:55;;;;;;;2.25;0.90;;;;;;;19.21;53.28;98688.84;1713314;83;21045;-51
2022/04/25 09:02:23;;;;;;;2.12;0.90;;;;;;;19.27;53.47;98694.17;1692862;83;22171;-49
2022/04/25 09:04:51;;;;;;;2.47;1.00;;;;;;;19.34;53.71;98696.63;1690427;83;22262;-50
2022/04/25 09:07:18;;;;;;;3.65;1.07;;;;;;;19.44;53.52;98696.06;1714898;83;21045;-51
2022/04/25 09:09:45;;;;;;;1.55;0.90;;;;;;;19.51;53.17;98697.69;1714871;83;21000;-51
2022/04/25 09:12:14;;;;;;;1.52;1.00;;;;;;;19.58;52.71;98702.86;1715765;83;21016;-51
2022/04/25 09:14:42;;;;;;;1.50;1.30;;;;;;;19.59;52.30;98694.53;1715575;83;21162;-50
2022/04/25 09:17:10;;;;;;;2.45;1.30;;;;;;;19.59;52.16;98701.86;1716152;83;21355;-50
2022/04/25 09:19:37;;;;;;;3.67;1.10;;;;;;;19.56;52.44;98702.19;1712232;82;21515;-52
2022/04/25 09:22:06;;;;;;;4.00;1.12;;;;;;;19.57;52.90;98696.55;1711230;83;21467;-55
2022/04/25 09:24:38;;;;;;;6.33;1.00;;;;;;;19.66;53.30;98693.39;1715174;82;21409;-51
2022/04/25 09:27:16;;;;;;;1.25;1.10;;;;;;;19.77;53.02;98693.66;1714733;83;21113;-51
2022/04/25 09:29:43;;;;;;;2.70;1.62;;;;;;;19.86;52.76;98702.27;1716848;83;21420;-51
2022/04/25 09:32:10;;;;;;;1.37;0.95;;;;;;;19.93;52.28;98698.75;1715073;83;20939;-51
2022/04/25 09:37:45;;;;;;;4.78;1.10;;;;;;;19.95;52.24;98698.59;1712403;83;21488;-51
2022/04/25 09:40:17;;;;;;;3.08;1.02;;;;;;;19.96;51.94;98701.17;1714060;82;21074;-53
2022/04/25 09:42:46;;;;;;;1.62;0.90;;;;;;;20.01;51.86;98693.86;1712735;83;21248;-52
2022/04/25 09:45:15;;;;;;;3.27;0.90;;;;;;;20.03;52.26;98693.20;1713658;83;21063;-52
2022/04/25 09:47:42;;;;;;;1.87;0.90;;;;;;;20.04;52.06;98693.55;1716633;83;20951;-51
2022/04/25 09:51:31;;;;;;;1.57;0.90;;;;;;;20.05;51.60;98690.31;1777437;78;28070;-52
2022/04/25 09:54:01;;;;;;;1.50;0.88;;;;;;;19.93;51.41;98696.02;1735331;80;21025;-50
2022/04/25 09:56:30;;;;;;;2.12;1.10;;;;;;;19.85;51.63;98695.09;1710232;81;21151;-52
2022/04/25 09:59:08;;;;;;;1.67;0.85;;;;;;;19.79;51.97;98703.92;1701425;83;20918;-50
2022/04/25 10:01:38;;;;;;;3.90;1.15;;;;;;;19.75;52.08;98702.00;1690235;82;21471;-52
2022/04/25 10:04:08;;;;;;;1.87;1.10;;;;;;;19.69;52.24;98699.91;1692182;82;21708;-52
2022/04/25 10:06:35;;;;;;;1.15;0.85;;;;;;;19.62;52.13;98702.41;1694499;83;21940;-51
2022/04/25 10:09:05;;;;;;;4.17;1.30;;;;;;;19.55;52.42;98710.02;1689915;82;21538;-50
2022/04/25 10:11:36;;;;;;;1.37;0.98;;;;;;;19.46;52.47;98700.86;1692841;82;21372;-51
2022/04/25 10:14:02;;;;;;;1.32;1.17;;;;;;;19.40;52.70;98691.91;1665024;84;22041;-50
2022/04/25 10:16:31;;;;;;;1.77;0.90;;;;;;;19.37;52.97;98690.87;1691406;84;21307;-51
2022/04/25 10:18:58;;;;;;;1.12;0.90;;;;;;;19.36;53.23;98686.42;1690479;82;21077;-52
2022/04/25 10:21:25;;;;;;;1.62;0.98;;;;;;;19.37;53.34;98694.97;1689021;84;21210;-51
2022/04/25 10:23:51;;;;;;;2.45;1.00;;;;;;;19.38;53.24;98694.46;1695066;83;21132;-51
2022/04/25 10:26:21;;;;;;;2.02;1.05;;;;;;;19.40;53.12;98694.64;1691140;83;21064;-51
2022/04/25 10:28:59;;;;;;;1.20;1.00;;;;;;;19.43;52.92;98688.88;1644573;84;21065;-53
2022/04/25 10:31:28;;;;;;;2.47;1.47;;;;;;;19.49;53.00;98691.02;1691778;82;22147;-51
2022/04/25 10:33:58;;;;;;;3.65;0.85;;;;;;;19.56;52.90;98689.91;1693910;84;21140;-50
2022/04/25 10:36:42;;;;;;;3.15;1.27;;;;;;;19.66;53.13;98694.75;1691923;84;20922;-49
2022/04/25 10:39:27;;;;;;;2.30;1.25;;;;;;;19.78;52.88;98694.88;1695327;83;21382;-50
2022/04/25 10:44:53;;;;;;;1.00;0.90;;;;;;;20.06;51.96;98690.16;1691226;82;21045;-50
2022/04/25 10:47:21;;;;;;;4.80;1.10;;;;;;;20.15;51.37;98696.03;1689951;84;21270;-51
2022/04/25 10:49:58;;;;;;;2.58;1.32;;;;;;;20.22;51.05;98692.14;1690920;83;20976;-51
2022/04/25 10:52:52;;;;;;;1.27;0.90;;;;;;;20.27;50.94;98695.23;1703136;83;21900;-51
2022/04/25 10:55:42;;;;;;;2.45;1.00;;;;;;;20.30;50.84;98683.48;1698689;83;21363;-51
2022/04/25 10:58:11;;;;;;;2.87;1.10;;;;;;;20.38;50.95;98689.04;1697805;83;20957;-51
2022/04/25 11:00:45;;;;;;;2.72;0.80;;;;;;;20.45;50.79;98698.81;1702088;83;21105;-50
2022/04/25 11:03:23;;;;;;;1.47;1.00;;;;;;;20.49;49.82;98694.75;1698553;83;21551;-51
2022/04/25 11:06:00;;;;;;;3.75;1.22;;;;;;;20.52;49.00;98702.60;1702559;83;21267;-51
2022/04/25 11:08:37;;;;;;;2.65;0.90;;;;;;;20.55;49.20;98697.33;1703502;83;20962;-50
2022/04/25 11:11:16;;;;;;;4.10;0.93;;;;;;;20.60;49.05;98705.89;1701933;83;21504;-51
2022/04/25 11:14:01;;;;;;;4.72;1.00;;;;;;;20.62;49.02;98697.88;1666173;83;21443;-52
2022/04/25 11:16:28;;;;;;;4.33;1.37;;;;;;;20.62;49.23;98700.61;1665911;84;21728;-51
2022/04/25 11:19:22;;;;;;;2.85;1.17;;;;;;;20.63;48.80;98694.64;1708337;82;20978;-51
2022/04/25 11:21:55;;;;;;;6.33;1.37;;;;;;;20.66;48.58;98694.33;1700852;83;21100;-50
2022/04/25 11:24:35;;;;;;;5.17;1.45;;;;;;;20.72;48.84;98700.50;1673047;83;21084;-50
2022/04/25 11:27:11;;;;;;;3.30;1.00;;;;;;;20.78;48.56;98698.47;1686917;84;20913;-50
2022/04/25 11:29:44;;;;;;;2.05;0.85;;;;;;;20.80;48.59;98701.05;1709114;83;20910;-50
2022/04/25 11:32:27;;;;;;;1.85;0.88;;;;;;;20.80;48.27;98704.64;1668316;84;21056;-53
2022/04/25 11:34:59;;;;;;;3.00;1.00;;;;;;;20.78;48.35;98713.00;1670575;84;21059;-53
2022/04/25 11:37:28;;;;;;;3.00;0.90;;;;;;;20.74;47.71;98713.50;1703794;83;21106;-52
2022/04/25 11:40:02;;;;;;;4.12;0.80;;;;;;;20.71;48.03;98712.45;1668707;83;20941;-51
2022/04/25 11:42:31;;;;;;;;;;;;;;;20.67;47.97;98712.45;1670516;84;21061;-50
2022/04/25 11:44:58;;;;;;;3.33;0.90;;;;;;;20.61;47.90;98708.47;1667794;84;20475;-52
2022/04/25 11:47:25;;;;;;;2.25;1.00;;;;;;;20.57;47.89;98697.53;1702853;83;22232;-50
2022/04/25 11:49:57;;;;;;;3.15;0.90;;;;;;;20.51;48.46;98687.72;1707522;83;20980;-52
2022/04/25 11:52:24;;;;;;;2.70;1.10;;;;;;;20.47;48.42;98689.09;1682634;83;21745;-51
2022/04/25 11:54:50;;;;;;;6.45;1.22;;;;;;;20.45;48.66;98688.38;1676052;83;21077;-51
2022/04/25 11:57:16;;;;;;;3.35;1.00;;;;;;;20.45;48.89;98691.12;1678160;84;21109;-52
2022/04/25 11:59:43;;;;;;;3.72;1.00;;;;;;;20.48;49.21;98689.44;1714925;82;21548;-52
2022/04/25 12:02:10;;;;;;;2.80;1.12;;;;;;;20.51;49.19;98690.45;1718528;82;21443;-51
2022/04/25 12:04:37;;;;;;;2.20;1.22;;;;;;;20.52;49.39;98689.44;1717049;82;21148;-52
2022/04/25 12:07:09;;;;;;;4.12;1.00;;;;;;;20.52;49.14;98688.94;1715685;82;21388;-51
2022/04/25 12:15:38;;;;;;;2.20;0.90;;;;;;;20.51;49.42;98687.72;1718272;82;21465;-51
2022/04/25 12:18:21;;;;;;;2.80;1.10;;;;;;;20.50;49.28;98685.50;1721423;82;21132;-51
2022/04/25 12:20:52;;;;;;;2.62;1.10;;;;;;;20.49;49.34;98684.32;1718827;82;20988;-51
2022/04/25 12:23:29;;;;;;;5.55;1.20;;;;;;;20.48;49.28;98677.14;1713565;82;21015;-52